sensor_id;sensor_type;location;lat;lon;timestamp;P1;durP1;ratioP1;P2;durP2;ratioP2
13733;SDS011;43298;52.560;13.508;2022-08-19T00:01:32;18.67;;;17.83;;
13733;SDS011;43298;52.560;13.508;2022-08-19T00:04:02;21.73;;;20.63;;
13733;SDS011;43298;52.560;13.508;2022-08-19T00:06:30;18.73;;;17.77;;
13733;SDS011;43298;52.560;13.508;2022-08-19T00:08:56;18.27;;;17.40;;
13733;SDS011;43298;52.560;13.508;2022-08-19T00:11:25;20.45;;;19.40;;
13733;SDS011;43298;52.560;13.508;2022-08-19T00:13:52;22.75;;;21.42;;
13733;SDS011;43298;52.560;13.508;2022-08-19T00:16:20;22.38;;;21.33;;
13733;SDS011;43298;52.560;13.508;2022-08-19T00:18:46;22.75;;;21.63;;
13733;SDS011;43298;52.560;13.508;2022-08-19T00:21:13;18.83;;;17.73;;
13733;SDS011;43298;52.560;13.508;2022-08-19T00:23:40;18.40;;;17.30;;
13733;SDS011;43298;52.560;13.508;2022-08-19T00:26:08;17.02;;;16.13;;
13733;SDS011;43298;52.560;13.508;2022-08-19T00:28:35;19.98;;;18.98;;
13733;SDS011;43298;52.560;13.508;2022-08-19T00:31:05;16.20;;;15.38;;
13733;SDS011;43298;52.560;13.508;2022-08-19T00:33:33;19.27;;;18.08;;
13733;SDS011;43298;52.560;13.508;2022-08-19T00:36:00;17.20;;;16.45;;
13733;SDS011;43298;52.560;13.508;2022-08-19T00:38:29;22.85;;;21.75;;
13733;SDS011;43298;52.560;13.508;2022-08-19T00:40:55;17.50;;;16.58;;
13733;SDS011;43298;52.560;13.508;2022-08-19T00:43:22;17.08;;;16.23;;
13733;SDS011;43298;52.560;13.508;2022-08-19T00:45:51;18.60;;;17.70;;
13733;SDS011;43298;52.560;13.508;2022-08-19T00:48:17;20.20;;;19.10;;
13733;SDS011;43298;52.560;13.508;2022-08-19T00:50:45;22.02;;;21.05;;
13733;SDS011;43298;52.560;13.508;2022-08-19T00:53:18;21.17;;;20.17;;
13733;SDS011;43298;52.560;13.508;2022-08-19T00:55:48;23.23;;;21.65;;
13733;SDS011;43298;52.560;13.508;2022-08-19T00:58:19;21.60;;;20.60;;
13733;SDS011;43298;52.560;13.508;2022-08-19T01:00:49;19.58;;;18.58;;
13733;SDS011;43298;52.560;13.508;2022-08-19T01:03:17;20.45;;;19.23;;
13733;SDS011;43298;52.560;13.508;2022-08-19T01:05:45;20.58;;;19.58;;
13733;SDS011;43298;52.560;13.508;2022-08-19T01:08:14;21.00;;;19.83;;
13733;SDS011;43298;52.560;13.508;2022-08-19T01:10:43;19.15;;;18.25;;
13733;SDS011;43298;52.560;13.508;2022-08-19T01:13:14;19.77;;;18.88;;
13733;SDS011;43298;52.560;13.508;2022-08-19T01:15:46;19.70;;;18.55;;
13733;SDS011;43298;52.560;13.508;2022-08-19T01:18:20;19.85;;;18.70;;
13733;SDS011;43298;52.560;13.508;2022-08-19T01:20:46;19.63;;;18.58;;
13733;SDS011;43298;52.560;13.508;2022-08-19T01:23:13;20.85;;;19.77;;
13733;SDS011;43298;52.560;13.508;2022-08-19T01:28:25;18.60;;;17.45;;
13733;SDS011;43298;52.560;13.508;2022-08-19T01:30:52;17.88;;;16.98;;
13733;SDS011;43298;52.560;13.508;2022-08-19T01:33:19;24.45;;;23.27;;
13733;SDS011;43298;52.560;13.508;2022-08-19T01:35:46;21.25;;;20.10;;
13733;SDS011;43298;52.560;13.508;2022-08-19T01:38:24;20.25;;;19.25;;
13733;SDS011;43298;52.560;13.508;2022-08-19T01:40:51;23.25;;;22.05;;
13733;SDS011;43298;52.560;13.508;2022-08-19T01:43:18;21.75;;;20.65;;
13733;SDS011;43298;52.560;13.508;2022-08-19T01:45:44;46.72;;;44.35;;
13733;SDS011;43298;52.560;13.508;2022-08-19T01:48:11;46.88;;;44.55;;
13733;SDS011;43298;52.560;13.508;2022-08-19T01:50:38;30.67;;;29.10;;
13733;SDS011;43298;52.560;13.508;2022-08-19T01:53:05;28.23;;;26.92;;
13733;SDS011;43298;52.560;13.508;2022-08-19T01:55:37;25.52;;;24.33;;
13733;SDS011;43298;52.560;13.508;2022-08-19T01:58:06;31.50;;;30.05;;
13733;SDS011;43298;52.560;13.508;2022-08-19T02:00:41;20.50;;;19.50;;
13733;SDS011;43298;52.560;13.508;2022-08-19T02:03:08;27.70;;;26.30;;
13733;SDS011;43298;52.560;13.508;2022-08-19T02:05:36;21.60;;;20.48;;
13733;SDS011;43298;52.560;13.508;2022-08-19T02:08:03;21.85;;;20.65;;
13733;SDS011;43298;52.560;13.508;2022-08-19T02:10:29;20.40;;;19.35;;
13733;SDS011;43298;52.560;13.508;2022-08-19T02:12:56;21.25;;;20.20;;
13733;SDS011;43298;52.560;13.508;2022-08-19T02:15:23;21.33;;;20.25;;
13733;SDS011;43298;52.560;13.508;2022-08-19T02:17:50;20.45;;;19.35;;
13733;SDS011;43298;52.560;13.508;2022-08-19T02:20:16;17.05;;;16.23;;
13733;SDS011;43298;52.560;13.508;2022-08-19T02:22:42;15.18;;;14.48;;
13733;SDS011;43298;52.560;13.508;2022-08-19T02:25:09;15.65;;;14.95;;
13733;SDS011;43298;52.560;13.508;2022-08-19T02:27:38;17.42;;;16.10;;
13733;SDS011;43298;52.560;13.508;2022-08-19T02:30:05;16.88;;;15.88;;
13733;SDS011;43298;52.560;13.508;2022-08-19T02:32:34;16.70;;;15.88;;
13733;SDS011;43298;52.560;13.508;2022-08-19T02:35:00;17.65;;;16.60;;
13733;SDS011;43298;52.560;13.508;2022-08-19T02:37:26;18.38;;;17.50;;
13733;SDS011;43298;52.560;13.508;2022-08-19T02:40:11;17.83;;;17.00;;
13733;SDS011;43298;52.560;13.508;2022-08-19T02:42:37;17.88;;;17.05;;
13733;SDS011;43298;52.560;13.508;2022-08-19T02:45:03;17.65;;;16.65;;
13733;SDS011;43298;52.560;13.508;2022-08-19T02:47:30;17.90;;;17.00;;
13733;SDS011;43298;52.560;13.508;2022-08-19T02:49:56;22.25;;;21.15;;
13733;SDS011;43298;52.560;13.508;2022-08-19T02:52:22;21.60;;;20.35;;
13733;SDS011;43298;52.560;13.508;2022-08-19T02:54:48;20.80;;;19.70;;
13733;SDS011;43298;52.560;13.508;2022-08-19T02:57:14;23.35;;;22.27;;
13733;SDS011;43298;52.560;13.508;2022-08-19T02:59:40;20.55;;;19.30;;
13733;SDS011;43298;52.560;13.508;2022-08-19T03:02:06;19.30;;;18.40;;
13733;SDS011;43298;52.560;13.508;2022-08-19T03:04:31;19.15;;;18.15;;
13733;SDS011;43298;52.560;13.508;2022-08-19T03:06:57;21.55;;;20.48;;
13733;SDS011;43298;52.560;13.508;2022-08-19T03:09:23;19.00;;;18.08;;
13733;SDS011;43298;52.560;13.508;2022-08-19T03:11:49;17.50;;;16.63;;
13733;SDS011;43298;52.560;13.508;2022-08-19T03:14:15;17.50;;;16.60;;
13733;SDS011;43298;52.560;13.508;2022-08-19T03:16:43;17.25;;;16.45;;
13733;SDS011;43298;52.560;13.508;2022-08-19T03:19:13;18.02;;;17.13;;
13733;SDS011;43298;52.560;13.508;2022-08-19T03:21:42;17.95;;;16.95;;
13733;SDS011;43298;52.560;13.508;2022-08-19T03:24:12;18.80;;;17.63;;
13733;SDS011;43298;52.560;13.508;2022-08-19T03:26:41;17.75;;;16.75;;
13733;SDS011;43298;52.560;13.508;2022-08-19T03:29:10;16.63;;;15.60;;
13733;SDS011;43298;52.560;13.508;2022-08-19T03:31:37;14.70;;;14.00;;
13733;SDS011;43298;52.560;13.508;2022-08-19T03:34:04;17.15;;;16.35;;
13733;SDS011;43298;52.560;13.508;2022-08-19T03:36:30;17.77;;;16.58;;
13733;SDS011;43298;52.560;13.508;2022-08-19T03:38:57;15.13;;;14.32;;
13733;SDS011;43298;52.560;13.508;2022-08-19T03:41:29;17.73;;;16.73;;
13733;SDS011;43298;52.560;13.508;2022-08-19T03:44:07;15.02;;;14.23;;
13733;SDS011;43298;52.560;13.508;2022-08-19T03:46:34;15.63;;;14.90;;
13733;SDS011;43298;52.560;13.508;2022-08-19T03:49:02;15.52;;;14.63;;
13733;SDS011;43298;52.560;13.508;2022-08-19T03:51:34;15.88;;;14.93;;
13733;SDS011;43298;52.560;13.508;2022-08-19T03:54:04;14.57;;;13.88;;
13733;SDS011;43298;52.560;13.508;2022-08-19T03:56:34;14.55;;;13.85;;
13733;SDS011;43298;52.560;13.508;2022-08-19T03:59:02;15.32;;;14.43;;
13733;SDS011;43298;52.560;13.508;2022-08-19T04:01:30;14.52;;;13.73;;
13733;SDS011;43298;52.560;13.508;2022-08-19T04:03:57;14.88;;;14.18;;
13733;SDS011;43298;52.560;13.508;2022-08-19T04:06:26;17.98;;;16.65;;
13733;SDS011;43298;52.560;13.508;2022-08-19T04:08:57;15.85;;;15.10;;
13733;SDS011;43298;52.560;13.508;2022-08-19T04:11:30;15.00;;;14.30;;
13733;SDS011;43298;52.560;13.508;2022-08-19T04:14:01;15.57;;;14.77;;
13733;SDS011;43298;52.560;13.508;2022-08-19T04:16:27;13.32;;;12.40;;
13733;SDS011;43298;52.560;13.508;2022-08-19T04:18:54;15.10;;;14.27;;
13733;SDS011;43298;52.560;13.508;2022-08-19T04:21:26;13.82;;;13.00;;
13733;SDS011;43298;52.560;13.508;2022-08-19T04:23:52;12.80;;;12.18;;
13733;SDS011;43298;52.560;13.508;2022-08-19T04:26:21;14.32;;;13.52;;
13733;SDS011;43298;52.560;13.508;2022-08-19T04:28:55;13.35;;;12.48;;
13733;SDS011;43298;52.560;13.508;2022-08-19T04:31:22;15.05;;;14.25;;
13733;SDS011;43298;52.560;13.508;2022-08-19T04:33:56;15.07;;;14.27;;
13733;SDS011;43298;52.560;13.508;2022-08-19T04:36:26;14.82;;;13.75;;
13733;SDS011;43298;52.560;13.508;2022-08-19T04:38:56;13.90;;;13.10;;
13733;SDS011;43298;52.560;13.508;2022-08-19T04:41:25;16.27;;;15.38;;
13733;SDS011;43298;52.560;13.508;2022-08-19T04:44:10;16.42;;;15.52;;
13733;SDS011;43298;52.560;13.508;2022-08-19T04:46:37;15.30;;;14.60;;
13733;SDS011;43298;52.560;13.508;2022-08-19T04:49:04;16.00;;;15.20;;
13733;SDS011;43298;52.560;13.508;2022-08-19T04:51:32;18.27;;;17.38;;
13733;SDS011;43298;52.560;13.508;2022-08-19T04:53:58;18.23;;;17.15;;
13733;SDS011;43298;52.560;13.508;2022-08-19T04:56:26;18.88;;;17.85;;
13733;SDS011;43298;52.560;13.508;2022-08-19T04:58:53;24.17;;;22.80;;
13733;SDS011;43298;52.560;13.508;2022-08-19T05:01:25;28.33;;;26.92;;
13733;SDS011;43298;52.560;13.508;2022-08-19T05:03:57;27.88;;;26.38;;
13733;SDS011;43298;52.560;13.508;2022-08-19T05:06:29;24.70;;;23.45;;
13733;SDS011;43298;52.560;13.508;2022-08-19T05:08:59;26.58;;;25.35;;
13733;SDS011;43298;52.560;13.508;2022-08-19T05:11:29;29.70;;;28.20;;
13733;SDS011;43298;52.560;13.508;2022-08-19T05:13:59;27.75;;;26.48;;
13733;SDS011;43298;52.560;13.508;2022-08-19T05:16:25;36.58;;;34.88;;
13733;SDS011;43298;52.560;13.508;2022-08-19T05:18:53;41.65;;;39.80;;
13733;SDS011;43298;52.560;13.508;2022-08-19T05:21:42;41.20;;;39.22;;
13733;SDS011;43298;52.560;13.508;2022-08-19T05:24:28;45.53;;;43.47;;
13733;SDS011;43298;52.560;13.508;2022-08-19T05:26:55;43.95;;;42.00;;
13733;SDS011;43298;52.560;13.508;2022-08-19T05:29:22;57.25;;;54.70;;
13733;SDS011;43298;52.560;13.508;2022-08-19T05:31:51;47.05;;;44.75;;
13733;SDS011;43298;52.560;13.508;2022-08-19T05:34:20;34.25;;;32.70;;
13733;SDS011;43298;52.560;13.508;2022-08-19T05:36:51;41.63;;;39.72;;
13733;SDS011;43298;52.560;13.508;2022-08-19T05:39:27;39.60;;;37.80;;
13733;SDS011;43298;52.560;13.508;2022-08-19T05:41:58;46.78;;;44.35;;
13733;SDS011;43298;52.560;13.508;2022-08-19T05:44:29;42.72;;;40.83;;
13733;SDS011;43298;52.560;13.508;2022-08-19T05:46:58;48.63;;;46.40;;
13733;SDS011;43298;52.560;13.508;2022-08-19T05:49:26;54.47;;;52.03;;
13733;SDS011;43298;52.560;13.508;2022-08-19T05:51:53;54.83;;;52.20;;
13733;SDS011;43298;52.560;13.508;2022-08-19T05:54:20;52.25;;;49.70;;
13733;SDS011;43298;52.560;13.508;2022-08-19T05:56:48;58.97;;;55.92;;
13733;SDS011;43298;52.560;13.508;2022-08-19T05:59:15;60.35;;;57.58;;
13733;SDS011;43298;52.560;13.508;2022-08-19T06:01:44;53.38;;;51.03;;
13733;SDS011;43298;52.560;13.508;2022-08-19T06:04:15;48.83;;;46.58;;
13733;SDS011;43298;52.560;13.508;2022-08-19T06:06:43;50.35;;;47.90;;
13733;SDS011;43298;52.560;13.508;2022-08-19T06:09:16;56.17;;;53.58;;
13733;SDS011;43298;52.560;13.508;2022-08-19T06:11:57;43.30;;;41.15;;
13733;SDS011;43298;52.560;13.508;2022-08-19T06:14:26;33.08;;;31.50;;
13733;SDS011;43298;52.560;13.508;2022-08-19T06:16:57;35.33;;;33.78;;
13733;SDS011;43298;52.560;13.508;2022-08-19T06:19:26;29.10;;;27.83;;
13733;SDS011;43298;52.560;13.508;2022-08-19T06:21:55;26.55;;;25.38;;
13733;SDS011;43298;52.560;13.508;2022-08-19T06:24:24;23.00;;;21.33;;
13733;SDS011;43298;52.560;13.508;2022-08-19T06:26:52;19.70;;;18.83;;
13733;SDS011;43298;52.560;13.508;2022-08-19T06:29:23;18.38;;;17.27;;
13733;SDS011;43298;52.560;13.508;2022-08-19T06:31:52;20.67;;;19.58;;
13733;SDS011;43298;52.560;13.508;2022-08-19T06:34:21;19.90;;;18.80;;
13733;SDS011;43298;52.560;13.508;2022-08-19T06:36:48;18.33;;;17.35;;
13733;SDS011;43298;52.560;13.508;2022-08-19T06:39:21;19.98;;;18.90;;
13733;SDS011;43298;52.560;13.508;2022-08-19T06:41:50;17.23;;;16.35;;
13733;SDS011;43298;52.560;13.508;2022-08-19T06:44:19;19.05;;;18.15;;
13733;SDS011;43298;52.560;13.508;2022-08-19T06:46:47;20.40;;;19.27;;
13733;SDS011;43298;52.560;13.508;2022-08-19T06:49:14;22.17;;;20.98;;
13733;SDS011;43298;52.560;13.508;2022-08-19T06:51:42;22.80;;;21.60;;
13733;SDS011;43298;52.560;13.508;2022-08-19T06:54:15;29.70;;;28.15;;
13733;SDS011;43298;52.560;13.508;2022-08-19T06:56:42;23.42;;;22.33;;
13733;SDS011;43298;52.560;13.508;2022-08-19T06:59:11;24.20;;;22.98;;
13733;SDS011;43298;52.560;13.508;2022-08-19T07:01:46;22.05;;;20.83;;
13733;SDS011;43298;52.560;13.508;2022-08-19T07:04:16;18.63;;;17.77;;
13733;SDS011;43298;52.560;13.508;2022-08-19T07:06:47;17.30;;;16.27;;
13733;SDS011;43298;52.560;13.508;2022-08-19T07:09:15;18.40;;;17.45;;
13733;SDS011;43298;52.560;13.508;2022-08-19T07:11:49;19.33;;;18.45;;
13733;SDS011;43298;52.560;13.508;2022-08-19T07:14:18;15.43;;;14.63;;
13733;SDS011;43298;52.560;13.508;2022-08-19T07:16:50;13.77;;;13.07;;
13733;SDS011;43298;52.560;13.508;2022-08-19T07:19:20;17.90;;;17.00;;
13733;SDS011;43298;52.560;13.508;2022-08-19T07:21:48;16.88;;;15.32;;
13733;SDS011;43298;52.560;13.508;2022-08-19T07:24:18;17.27;;;16.30;;
13733;SDS011;43298;52.560;13.508;2022-08-19T07:26:46;16.27;;;15.48;;
13733;SDS011;43298;52.560;13.508;2022-08-19T07:29:12;17.02;;;16.10;;
13733;SDS011;43298;52.560;13.508;2022-08-19T07:31:38;17.60;;;16.63;;
13733;SDS011;43298;52.560;13.508;2022-08-19T07:34:05;16.80;;;15.80;;
13733;SDS011;43298;52.560;13.508;2022-08-19T07:36:37;14.90;;;14.07;;
13733;SDS011;43298;52.560;13.508;2022-08-19T07:39:07;14.73;;;13.80;;
13733;SDS011;43298;52.560;13.508;2022-08-19T07:41:38;13.98;;;12.85;;
13733;SDS011;43298;52.560;13.508;2022-08-19T07:44:04;15.57;;;14.68;;
13733;SDS011;43298;52.560;13.508;2022-08-19T07:46:32;14.35;;;13.52;;
13733;SDS011;43298;52.560;13.508;2022-08-19T07:49:00;14.65;;;13.95;;
13733;SDS011;43298;52.560;13.508;2022-08-19T07:51:28;15.68;;;14.88;;
13733;SDS011;43298;52.560;13.508;2022-08-19T07:53:54;14.48;;;13.68;;
13733;SDS011;43298;52.560;13.508;2022-08-19T07:56:20;15.48;;;14.68;;
13733;SDS011;43298;52.560;13.508;2022-08-19T07:58:48;15.30;;;14.05;;
13733;SDS011;43298;52.560;13.508;2022-08-19T08:01:19;17.65;;;16.70;;
13733;SDS011;43298;52.560;13.508;2022-08-19T08:03:49;17.08;;;16.17;;
13733;SDS011;43298;52.560;13.508;2022-08-19T08:06:36;16.73;;;15.73;;
13733;SDS011;43298;52.560;13.508;2022-08-19T08:09:32;17.20;;;16.02;;
13733;SDS011;43298;52.560;13.508;2022-08-19T08:12:04;18.33;;;17.30;;
13733;SDS011;43298;52.560;13.508;2022-08-19T08:14:59;18.05;;;17.15;;
13733;SDS011;43298;52.560;13.508;2022-08-19T08:17:32;18.02;;;17.02;;
13733;SDS011;43298;52.560;13.508;2022-08-19T08:19:58;17.55;;;16.65;;
13733;SDS011;43298;52.560;13.508;2022-08-19T08:22:24;20.27;;;19.30;;
13733;SDS011;43298;52.560;13.508;2022-08-19T08:25:11;20.13;;;18.88;;
13733;SDS011;43298;52.560;13.508;2022-08-19T08:27:39;22.02;;;20.95;;
13733;SDS011;43298;52.560;13.508;2022-08-19T08:30:09;19.15;;;18.25;;
13733;SDS011;43298;52.560;13.508;2022-08-19T08:32:39;21.58;;;20.48;;
13733;SDS011;43298;52.560;13.508;2022-08-19T08:35:06;17.67;;;16.73;;
13733;SDS011;43298;52.560;13.508;2022-08-19T08:37:36;25.75;;;24.45;;
13733;SDS011;43298;52.560;13.508;2022-08-19T08:40:07;24.77;;;23.52;;
13733;SDS011;43298;52.560;13.508;2022-08-19T08:42:53;26.15;;;24.73;;
13733;SDS011;43298;52.560;13.508;2022-08-19T08:46:23;22.85;;;21.73;;
13733;SDS011;43298;52.560;13.508;2022-08-19T08:51:46;27.38;;;25.83;;
13733;SDS011;43298;52.560;13.508;2022-08-19T08:54:23;21.23;;;20.02;;
13733;SDS011;43298;52.560;13.508;2022-08-19T08:56:52;18.73;;;17.73;;
13733;SDS011;43298;52.560;13.508;2022-08-19T08:59:23;17.00;;;16.10;;
13733;SDS011;43298;52.560;13.508;2022-08-19T09:01:57;15.88;;;15.07;;
13733;SDS011;43298;52.560;13.508;2022-08-19T09:04:23;14.15;;;13.45;;
13733;SDS011;43298;52.560;13.508;2022-08-19T09:16:18;15.50;;;14.70;;
13733;SDS011;43298;52.560;13.508;2022-08-19T09:18:51;16.55;;;15.55;;
13733;SDS011;43298;52.560;13.508;2022-08-19T09:21:24;17.15;;;16.02;;
13733;SDS011;43298;52.560;13.508;2022-08-19T09:23:51;17.70;;;16.73;;
13733;SDS011;43298;52.560;13.508;2022-08-19T09:26:18;19.25;;;18.33;;
13733;SDS011;43298;52.560;13.508;2022-08-19T09:28:47;19.25;;;18.33;;
13733;SDS011;43298;52.560;13.508;2022-08-19T09:31:17;18.92;;;17.95;;
13733;SDS011;43298;52.560;13.508;2022-08-19T09:33:46;19.38;;;18.35;;
13733;SDS011;43298;52.560;13.508;2022-08-19T09:36:14;16.65;;;15.80;;
13733;SDS011;43298;52.560;13.508;2022-08-19T09:38:43;16.75;;;15.95;;
13733;SDS011;43298;52.560;13.508;2022-08-19T09:41:11;23.40;;;22.02;;
13733;SDS011;43298;52.560;13.508;2022-08-19T09:43:47;15.45;;;14.55;;
13733;SDS011;43298;52.560;13.508;2022-08-19T09:46:17;16.13;;;15.25;;
13733;SDS011;43298;52.560;13.508;2022-08-19T09:48:45;15.35;;;14.57;;
13733;SDS011;43298;52.560;13.508;2022-08-19T09:51:14;19.92;;;18.90;;
13733;SDS011;43298;52.560;13.508;2022-08-19T09:53:47;16.35;;;15.55;;
13733;SDS011;43298;52.560;13.508;2022-08-19T09:56:22;24.00;;;22.85;;
13733;SDS011;43298;52.560;13.508;2022-08-19T09:58:48;17.38;;;16.48;;
13733;SDS011;43298;52.560;13.508;2022-08-19T10:01:18;25.33;;;24.08;;
13733;SDS011;43298;52.560;13.508;2022-08-19T10:03:51;17.67;;;16.67;;
13733;SDS011;43298;52.560;13.508;2022-08-19T10:06:22;15.35;;;14.57;;
13733;SDS011;43298;52.560;13.508;2022-08-19T10:08:50;15.30;;;14.50;;
13733;SDS011;43298;52.560;13.508;2022-08-19T10:11:18;18.05;;;17.00;;
13733;SDS011;43298;52.560;13.508;2022-08-19T10:13:45;22.35;;;21.25;;
13733;SDS011;43298;52.560;13.508;2022-08-19T10:16:12;20.02;;;19.02;;
13733;SDS011;43298;52.560;13.508;2022-08-19T10:18:43;17.33;;;16.52;;
13733;SDS011;43298;52.560;13.508;2022-08-19T10:21:11;18.77;;;17.88;;
13733;SDS011;43298;52.560;13.508;2022-08-19T10:23:50;17.60;;;16.70;;
13733;SDS011;43298;52.560;13.508;2022-08-19T10:26:21;21.95;;;20.60;;
13733;SDS011;43298;52.560;13.508;2022-08-19T10:28:53;30.20;;;28.70;;
13733;SDS011;43298;52.560;13.508;2022-08-19T10:31:21;22.80;;;21.35;;
13733;SDS011;43298;52.560;13.508;2022-08-19T10:33:53;22.52;;;21.48;;
13733;SDS011;43298;52.560;13.508;2022-08-19T10:36:23;24.25;;;23.15;;
13733;SDS011;43298;52.560;13.508;2022-08-19T10:38:56;17.58;;;16.77;;
13733;SDS011;43298;52.560;13.508;2022-08-19T10:41:27;16.98;;;16.05;;
13733;SDS011;43298;52.560;13.508;2022-08-19T10:43:58;17.85;;;17.00;;
13733;SDS011;43298;52.560;13.508;2022-08-19T10:46:29;19.08;;;18.08;;
13733;SDS011;43298;52.560;13.508;2022-08-19T10:48:57;16.15;;;15.32;;
13733;SDS011;43298;52.560;13.508;2022-08-19T10:51:25;17.38;;;16.38;;
13733;SDS011;43298;52.560;13.508;2022-08-19T10:54:09;17.48;;;16.67;;
13733;SDS011;43298;52.560;13.508;2022-08-19T10:56:35;16.30;;;15.35;;
13733;SDS011;43298;52.560;13.508;2022-08-19T11:01:52;16.52;;;15.73;;
13733;SDS011;43298;52.560;13.508;2022-08-19T11:04:24;16.48;;;15.57;;
13733;SDS011;43298;52.560;13.508;2022-08-19T11:06:49;17.10;;;16.27;;
13733;SDS011;43298;52.560;13.508;2022-08-19T11:09:17;15.77;;;14.98;;
13733;SDS011;43298;52.560;13.508;2022-08-19T11:11:49;16.20;;;15.40;;
13733;SDS011;43298;52.560;13.508;2022-08-19T11:14:17;16.23;;;15.32;;
13733;SDS011;43298;52.560;13.508;2022-08-19T11:16:46;15.10;;;14.27;;
13733;SDS011;43298;52.560;13.508;2022-08-19T11:19:16;15.70;;;14.90;;
13733;SDS011;43298;52.560;13.508;2022-08-19T11:21:44;15.50;;;14.80;;
13733;SDS011;43298;52.560;13.508;2022-08-19T11:24:17;16.17;;;15.38;;
13733;SDS011;43298;52.560;13.508;2022-08-19T11:26:46;16.73;;;15.63;;
13733;SDS011;43298;52.560;13.508;2022-08-19T11:29:15;16.63;;;15.77;;
13733;SDS011;43298;52.560;13.508;2022-08-19T11:31:44;16.08;;;15.13;;
13733;SDS011;43298;52.560;13.508;2022-08-19T11:34:15;21.75;;;20.58;;
13733;SDS011;43298;52.560;13.508;2022-08-19T11:36:46;18.85;;;17.92;;
13733;SDS011;43298;52.560;13.508;2022-08-19T11:39:14;20.58;;;19.58;;
13733;SDS011;43298;52.560;13.508;2022-08-19T11:41:43;25.98;;;24.67;;
13733;SDS011;43298;52.560;13.508;2022-08-19T11:44:09;20.55;;;19.45;;
13733;SDS011;43298;52.560;13.508;2022-08-19T11:46:36;17.70;;;16.83;;
13733;SDS011;43298;52.560;13.508;2022-08-19T11:49:03;19.45;;;18.48;;
13733;SDS011;43298;52.560;13.508;2022-08-19T11:51:32;27.35;;;25.95;;
13733;SDS011;43298;52.560;13.508;2022-08-19T11:53:58;37.33;;;35.05;;
13733;SDS011;43298;52.560;13.508;2022-08-19T11:56:25;28.58;;;27.27;;
13733;SDS011;43298;52.560;13.508;2022-08-19T11:58:53;22.52;;;21.42;;
13733;SDS011;43298;52.560;13.508;2022-08-19T12:01:22;31.20;;;29.70;;
13733;SDS011;43298;52.560;13.508;2022-08-19T12:03:51;31.92;;;30.08;;
13733;SDS011;43298;52.560;13.508;2022-08-19T12:06:20;20.50;;;19.38;;
13733;SDS011;43298;52.560;13.508;2022-08-19T12:08:50;22.10;;;21.00;;
13733;SDS011;43298;52.560;13.508;2022-08-19T12:11:17;20.92;;;19.90;;
13733;SDS011;43298;52.560;13.508;2022-08-19T12:13:43;17.13;;;15.93;;
13733;SDS011;43298;52.560;13.508;2022-08-19T12:16:12;15.57;;;14.82;;
13733;SDS011;43298;52.560;13.508;2022-08-19T12:18:41;14.73;;;13.98;;
13733;SDS011;43298;52.560;13.508;2022-08-19T12:21:15;18.52;;;17.63;;
13733;SDS011;43298;52.560;13.508;2022-08-19T12:23:46;20.10;;;19.00;;
13733;SDS011;43298;52.560;13.508;2022-08-19T12:26:14;17.65;;;16.75;;
13733;SDS011;43298;52.560;13.508;2022-08-19T12:28:41;17.45;;;16.38;;
13733;SDS011;43298;52.560;13.508;2022-08-19T12:31:07;17.38;;;16.60;;
13733;SDS011;43298;52.560;13.508;2022-08-19T12:33:33;17.55;;;16.77;;
13733;SDS011;43298;52.560;13.508;2022-08-19T12:36:00;19.13;;;17.95;;
13733;SDS011;43298;52.560;13.508;2022-08-19T12:38:28;20.63;;;19.73;;
13733;SDS011;43298;52.560;13.508;2022-08-19T12:40:54;16.33;;;15.43;;
13733;SDS011;43298;52.560;13.508;2022-08-19T12:43:20;14.98;;;14.27;;
13733;SDS011;43298;52.560;13.508;2022-08-19T12:45:46;13.70;;;12.90;;
13733;SDS011;43298;52.560;13.508;2022-08-19T12:48:12;19.45;;;18.55;;
13733;SDS011;43298;52.560;13.508;2022-08-19T12:50:39;21.75;;;20.65;;
13733;SDS011;43298;52.560;13.508;2022-08-19T12:53:07;28.10;;;26.45;;
13733;SDS011;43298;52.560;13.508;2022-08-19T12:55:33;25.27;;;24.00;;
13733;SDS011;43298;52.560;13.508;2022-08-19T12:57:58;29.50;;;28.02;;
13733;SDS011;43298;52.560;13.508;2022-08-19T13:00:26;24.60;;;23.50;;
13733;SDS011;43298;52.560;13.508;2022-08-19T13:02:52;15.57;;;14.88;;
13733;SDS011;43298;52.560;13.508;2022-08-19T13:05:19;16.15;;;15.20;;
13733;SDS011;43298;52.560;13.508;2022-08-19T13:07:53;15.02;;;14.32;;
13733;SDS011;43298;52.560;13.508;2022-08-19T13:10:22;17.48;;;16.58;;
13733;SDS011;43298;52.560;13.508;2022-08-19T13:12:52;18.52;;;17.63;;
13733;SDS011;43298;52.560;13.508;2022-08-19T13:15:19;18.25;;;17.45;;
13733;SDS011;43298;52.560;13.508;2022-08-19T13:17:48;18.15;;;17.23;;
13733;SDS011;43298;52.560;13.508;2022-08-19T13:20:16;21.33;;;20.23;;
13733;SDS011;43298;52.560;13.508;2022-08-19T13:22:44;27.60;;;26.10;;
13733;SDS011;43298;52.560;13.508;2022-08-19T13:25:12;27.65;;;26.38;;
13733;SDS011;43298;52.560;13.508;2022-08-19T13:27:38;30.95;;;29.45;;
13733;SDS011;43298;52.560;13.508;2022-08-19T13:30:06;29.52;;;28.20;;
13733;SDS011;43298;52.560;13.508;2022-08-19T13:32:54;30.85;;;29.42;;
13733;SDS011;43298;52.560;13.508;2022-08-19T13:35:39;27.77;;;26.48;;
13733;SDS011;43298;52.560;13.508;2022-08-19T13:38:10;21.67;;;20.48;;
13733;SDS011;43298;52.560;13.508;2022-08-19T13:40:37;24.30;;;23.15;;
13733;SDS011;43298;52.560;13.508;2022-08-19T13:43:04;42.90;;;41.00;;
13733;SDS011;43298;52.560;13.508;2022-08-19T13:45:31;52.00;;;49.65;;
13733;SDS011;43298;52.560;13.508;2022-08-19T13:47:59;54.90;;;52.40;;
13733;SDS011;43298;52.560;13.508;2022-08-19T13:50:30;62.45;;;59.70;;
13733;SDS011;43298;52.560;13.508;2022-08-19T13:52:56;54.15;;;51.65;;
13733;SDS011;43298;52.560;13.508;2022-08-19T13:55:23;57.25;;;54.50;;
13733;SDS011;43298;52.560;13.508;2022-08-19T13:57:51;58.55;;;55.90;;
13733;SDS011;43298;52.560;13.508;2022-08-19T14:00:19;65.07;;;62.15;;
13733;SDS011;43298;52.560;13.508;2022-08-19T14:02:47;59.50;;;56.88;;
13733;SDS011;43298;52.560;13.508;2022-08-19T14:05:17;69.90;;;66.85;;
13733;SDS011;43298;52.560;13.508;2022-08-19T14:07:43;56.45;;;53.75;;
13733;SDS011;43298;52.560;13.508;2022-08-19T14:10:11;56.00;;;53.55;;
13733;SDS011;43298;52.560;13.508;2022-08-19T14:12:38;33.75;;;32.22;;
13733;SDS011;43298;52.560;13.508;2022-08-19T14:15:05;40.60;;;37.60;;
13733;SDS011;43298;52.560;13.508;2022-08-19T14:17:33;50.22;;;47.50;;
13733;SDS011;43298;52.560;13.508;2022-08-19T14:20:00;47.13;;;45.00;;
13733;SDS011;43298;52.560;13.508;2022-08-19T14:22:32;42.17;;;40.20;;
13733;SDS011;43298;52.560;13.508;2022-08-19T14:25:00;41.80;;;39.95;;
13733;SDS011;43298;52.560;13.508;2022-08-19T14:27:26;34.63;;;33.03;;
13733;SDS011;43298;52.560;13.508;2022-08-19T14:29:52;35.97;;;34.38;;
13733;SDS011;43298;52.560;13.508;2022-08-19T14:32:18;35.70;;;33.97;;
13733;SDS011;43298;52.560;13.508;2022-08-19T14:34:43;27.35;;;26.05;;
13733;SDS011;43298;52.560;13.508;2022-08-19T14:37:13;21.83;;;20.83;;
13733;SDS011;43298;52.560;13.508;2022-08-19T14:39:40;21.70;;;20.67;;